CheckWX is a tool to help pilots better visualize weather data.  It is not intended as a substitute for an official pre-flight weather briefing.

18:57:19 UTC

CYQZ TAF
Quesnel Airport
Quesnel, Canada
TAF CYQZ 081841Z 0819/0906 12005KT P6SM OVC015 TEMPO 0819/0822 OVC008 FM082200 12005KT P6SM OVC015 TEMPO 0822/0902 SCT015 FM090200 35005KT P6SM OVC015 TEMPO 0902/0906 OVC008 RMK FCST BASED ON AUTO OBS. NXT FCST BY 090100Z

Dec-8@
19:00 UTC

Dec-8 @ 19:00 UTC

Dec-8@
22:00 UTC

Dec-8 @ 22:00 UTC

TAF CYQZ 081841Z 0819/0906 12005KT P6SM OVC015
Wind
  • 120° at 5 KTS
Cloud Levels
  • Overcast at 1,500' AGL

Dec-8@
19:00 UTC

Dec-8 @ 19:00 UTC

Dec-8@
22:00 UTC

Dec-8 @ 22:00 UTC

TEMPO 0819/0822 OVC008

Temporary

Temporary Changes expected for less than half the time period

Cloud Levels
  • Overcast at 800' AGL

Dec-8@
22:00 UTC

Dec-8 @ 22:00 UTC

Dec-9@
02:00 UTC

Dec-9 @ 02:00 UTC

TEMPO 0822/0902 SCT015

Temporary

Temporary Changes expected for less than half the time period

Cloud Levels
  • Scattered at 1,500' AGL

Dec-8@
22:00 UTC

Dec-8 @ 22:00 UTC

Dec-9@
02:00 UTC

Dec-9 @ 02:00 UTC

FM082200 12005KT P6SM OVC015

From

From Standard forecast or significant change

Wind
  • 120° at 5 KTS
Cloud Levels
  • Overcast at 1,500' AGL

Dec-9@
02:00 UTC

Dec-9 @ 02:00 UTC

Dec-9@
06:00 UTC

Dec-9 @ 06:00 UTC

TEMPO 0902/0906 OVC008 RMK FCST BASED ON AUTO OBS. NXT FCST BY 090100Z

Temporary

Temporary Changes expected for less than half the time period

Cloud Levels
  • Overcast at 800' AGL

Dec-9@
02:00 UTC

Dec-9 @ 02:00 UTC

Dec-9@
06:00 UTC

Dec-9 @ 06:00 UTC

FM090200 35005KT P6SM OVC015

From

From Standard forecast or significant change

Wind
  • 350° at 5 KTS
Cloud Levels
  • Overcast at 1,500' AGL